Airfield :
LOGIN :

Register | Disclaimer

   EN    FR    IT 

 










Legend :    VFR   Marginal VFR   IFR   Intensive IFR   Very Intensive IFR
Visi :
Ceiling :
>= 8 km
>= 3000ft
5 to 8 km
1000 to 3000 ft
1500m to 5 km
500 to 1000 ft
800 to 1500m
200 to 500 ft
< 800m
< 200 ft
Symbols :   Thunderstorms  Fog  Heavy snow  Heavy precipitations  Wind > 20 kt
SIGMETs :     Misc.  Thunderstorms  Icing  Turbulence  Mountain Waves  Volcanic Ashes






- Airport Elevation : 1966 ft
- IATA code : SGE


EDGS - Siegerland

CURRENT METAR :
  • 171120Z 29010KT 6000 -SHRA BKN004 BKN012 OVC025 02/01 Q1009 RESHSN

EXPIRED METARs :
  • 171050Z 28011KT 7000 -DZ SCT007 BKN013 OVC036 03/02 Q1009
  • 171020Z 27011KT 4500 -DZ BR SCT007 BKN012 BKN018 02/01 Q1009
  • 170950Z 30008KT 250V330 9999 SCT014 BKN017 BKN020 04/00 Q1009
  • 170920Z 29010KT 9999 FEW009 SCT011 BKN016 03/00 Q1009
  • 170850Z 30011KT 270V330 9999 SCT009 BKN011 BKN016 03/01 Q1009
  • 170820Z 29011KT 9999 FEW006 SCT008 BKN012 03/01 Q1009
  • 170750Z 32009KT 270V350 9999 SCT002 BKN005 02/01 Q1009
  • 170720Z 32010KT 290V350 9999 2000W BR SCT001 BKN003 BKN005 02/01 Q1009

TAF TAF EDGS
Valid from the 17 at 12:00 until the 17 at 21:00 UTC


171100Z 1712/1721 30010KT 9999 BKN015
TEMPO 1712/1721 3000 SHRA SCT008 BKN010CB
PROB30
TEMPO 1713/1718 2000 TSRA BKN008CB
BECMG 1717/1719 31005KT
BECMG 1718/1721 2500 BR BKN004



MET'MAP, your aeronautical weather chart ! - Copyright ORBIFLY December 2007 - Disclaimer

ORBIFLY MET'MAP TEAM :

Programming & Development : Alexandra Zaïnal
Original concept : Baudouin d'Aumeries
Technical & hardware support : Manuel Goepfert
Assistance : Marc-Olivier Méhu




SOURCES & CREDITS :

   NOAA